Time;durP1;ratioP1;P1;durP2;ratioP2;P2;SDS_P1;SDS_P2;PMS_P1;PMS_P2;Temp;Humidity;BMP_temperature;BMP_pressure;BME280_temperature;BME280_humidity;BME280_pressure;Samples;Min_cycle;Max_cycle;Signal;HPM_P1;HPM_P2
2023/08/12 00:00:36;;;;;;;0.20;0.20;;;12.50;56.70;;;;;;5033274;28;20196;-55
2023/08/12 00:03:07;;;;;;;0.10;0.10;;;12.50;56.60;;;;;;5033170;28;20214;-56
2023/08/12 00:05:39;;;;;;;0.20;0.20;;;12.60;56.60;;;;;;5032244;28;20262;-53
2023/08/12 00:08:12;;;;;;;0.10;0.10;;;12.60;56.60;;;;;;5031758;28;20192;-52
2023/08/12 00:10:43;;;;;;;0.10;0.10;;;12.60;56.60;;;;;;5033123;28;20196;-53
2023/08/12 00:13:17;;;;;;;0.17;0.17;;;12.60;56.60;;;;;;5032742;28;20306;-52
2023/08/12 00:15:48;;;;;;;0.20;0.20;;;12.60;56.60;;;;;;5032511;28;20747;-54
2023/08/12 00:18:19;;;;;;;0.10;0.10;;;12.70;56.60;;;;;;5031562;28;20196;-53
2023/08/12 00:20:50;;;;;;;0.10;0.10;;;12.70;56.60;;;;;;5032322;28;20228;-55
2023/08/12 00:23:22;;;;;;;0.10;0.10;;;12.70;56.60;;;;;;5031959;28;20212;-51
2023/08/12 00:25:53;;;;;;;0.10;0.10;;;12.70;56.50;;;;;;5032178;28;20687;-55
2023/08/12 00:28:24;;;;;;;0.10;0.10;;;12.80;56.60;;;;;;5032718;28;20652;-54
2023/08/12 00:30:54;;;;;;;0.10;0.10;;;12.80;56.70;;;;;;5032563;28;20204;-57
2023/08/12 00:33:25;;;;;;;0.10;0.10;;;12.80;57.50;;;;;;5031858;28;20207;-56
2023/08/12 00:35:56;;;;;;;0.10;0.10;;;12.80;57.00;;;;;;5032050;28;20651;-55
2023/08/12 00:38:28;;;;;;;0.20;0.20;;;12.90;57.10;;;;;;5032481;28;20538;-54
2023/08/12 00:40:59;;;;;;;0.10;0.10;;;12.90;57.10;;;;;;5032826;28;20196;-53
2023/08/12 00:43:30;;;;;;;0.13;0.13;;;12.90;57.10;;;;;;5032571;28;20228;-54
2023/08/12 00:46:01;;;;;;;0.10;0.10;;;12.90;56.90;;;;;;5032168;28;20219;-54
2023/08/12 00:48:32;;;;;;;0.10;0.10;;;12.90;56.80;;;;;;5032123;28;20191;-56
2023/08/12 00:51:03;;;;;;;0.10;0.10;;;13.00;56.80;;;;;;5031999;28;20219;-58
2023/08/12 00:53:35;;;;;;;0.20;0.20;;;13.00;56.80;;;;;;5032299;28;20200;-54
2023/08/12 00:56:06;;;;;;;0.10;0.10;;;13.00;56.80;;;;;;5031945;28;20224;-56
2023/08/12 00:58:37;;;;;;;0.10;0.10;;;13.00;56.80;;;;;;5032165;28;20196;-57
2023/08/12 01:01:08;;;;;;;0.10;0.10;;;13.00;56.80;;;;;;5032134;28;20211;-56
2023/08/12 01:03:39;;;;;;;0.10;0.10;;;13.10;56.90;;;;;;5032062;28;20671;-54
2023/08/12 01:06:10;;;;;;;0.10;0.10;;;13.10;56.80;;;;;;5031750;28;20223;-56
2023/08/12 01:08:43;;;;;;;0.10;0.10;;;13.10;56.80;;;;;;5032022;28;20199;-57
2023/08/12 01:11:23;;;;;;;0.10;0.10;;;13.20;56.80;;;;;;5032118;28;20197;-54
2023/08/12 01:14:01;;;;;;;0.10;0.10;;;13.20;56.80;;;;;;5031767;28;20199;-55
2023/08/12 01:16:36;;;;;;;0.20;0.20;;;13.20;56.80;;;;;;5031830;28;20228;-57
2023/08/12 01:19:12;;;;;;;0.10;0.10;;;13.20;56.70;;;;;;5031645;28;20541;-57
2023/08/12 01:21:46;;;;;;;0.10;0.10;;;13.30;56.80;;;;;;5031445;28;20202;-55
2023/08/12 01:24:19;;;;;;;0.10;0.10;;;13.30;56.80;;;;;;5030650;28;20199;-56
2023/08/12 01:26:49;;;;;;;0.10;0.10;;;13.30;56.80;;;;;;5031363;28;20212;-57
2023/08/12 01:29:20;;;;;;;0.10;0.10;;;13.30;56.80;;;;;;5031717;28;20208;-56
2023/08/12 01:31:57;;;;;;;0.10;0.10;;;13.40;56.90;;;;;;5031674;28;20236;-56
2023/08/12 01:34:36;;;;;;;0.10;0.10;;;13.40;56.90;;;;;;5031684;28;20218;-53
2023/08/12 01:37:09;;;;;;;0.10;0.10;;;13.40;56.80;;;;;;5031439;28;20231;-54
2023/08/12 01:39:44;;;;;;;0.10;0.10;;;13.50;56.80;;;;;;5031141;28;20254;-57
2023/08/12 01:42:15;;;;;;;0.10;0.10;;;13.50;56.90;;;;;;5031307;28;20239;-55
2023/08/12 01:44:45;;;;;;;0.10;0.10;;;13.50;56.90;;;;;;5035071;28;20266;-56
2023/08/12 01:47:16;;;;;;;0.10;0.10;;;13.50;56.90;;;;;;5035485;28;20220;-57
2023/08/12 01:49:46;;;;;;;0.10;0.10;;;13.60;56.90;;;;;;5035600;28;20207;-57
2023/08/12 01:52:17;;;;;;;0.00;0.00;;;13.60;56.90;;;;;;5035248;28;20207;-57
2023/08/12 01:54:50;;;;;;;0.10;0.10;;;13.60;56.90;;;;;;5035398;28;20262;-57
2023/08/12 01:57:20;;;;;;;0.10;0.10;;;13.70;57.60;;;;;;5035200;28;20242;-55
2023/08/12 01:59:52;;;;;;;0.10;0.10;;;13.70;57.00;;;;;;5035268;28;20203;-57
2023/08/12 02:02:22;;;;;;;0.10;0.10;;;13.70;57.00;;;;;;5035444;28;20651;-56
2023/08/12 02:04:53;;;;;;;0.10;0.10;;;13.70;57.00;;;;;;5035251;28;20206;-57
2023/08/12 02:07:24;;;;;;;0.10;0.10;;;13.80;57.10;;;;;;5035356;28;20223;-57
2023/08/12 02:09:56;;;;;;;0.10;0.10;;;13.80;57.00;;;;;;5035178;28;20200;-52
2023/08/12 02:12:27;;;;;;;0.10;0.10;;;13.80;57.00;;;;;;5032551;28;20835;-54
2023/08/12 02:14:57;;;;;;;0.10;0.10;;;13.80;57.00;;;;;;5035114;28;20471;-51
2023/08/12 02:17:28;;;;;;;0.10;0.10;;;13.90;57.00;;;;;;5034596;28;20231;-53
2023/08/12 02:19:59;;;;;;;0.10;0.10;;;13.90;57.00;;;;;;5035090;28;20203;-53
2023/08/12 02:22:29;;;;;;;0.10;0.10;;;13.90;56.90;;;;;;5034962;28;20200;-52
2023/08/12 02:25:02;;;;;;;0.10;0.10;;;13.90;56.90;;;;;;5015064;28;20200;-49
2023/08/12 02:27:32;;;;;;;0.10;0.10;;;14.00;57.00;;;;;;5015041;28;20228;-51
2023/08/12 02:30:03;;;;;;;0.10;0.10;;;14.00;56.90;;;;;;5014663;28;20664;-57
2023/08/12 02:32:34;;;;;;;0.10;0.10;;;14.10;56.90;;;;;;5014753;28;20208;-54
2023/08/12 02:35:05;;;;;;;0.10;0.10;;;14.00;56.80;;;;;;5014681;28;20204;-54
2023/08/12 02:37:35;;;;;;;0.10;0.10;;;14.10;56.90;;;;;;5014815;28;20701;-55
2023/08/12 02:40:10;;;;;;;0.10;0.10;;;14.10;56.90;;;;;;5014756;28;20205;-54
2023/08/12 02:42:41;;;;;;;0.10;0.10;;;14.20;57.00;;;;;;5014742;28;20220;-56
2023/08/12 02:45:12;;;;;;;0.10;0.10;;;14.20;56.90;;;;;;5014784;28;20200;-55
2023/08/12 02:47:42;;;;;;;0.10;0.10;;;14.20;56.90;;;;;;5014149;28;20584;-51
2023/08/12 02:50:13;;;;;;;0.10;0.10;;;14.20;56.90;;;;;;5014257;28;20196;-55
2023/08/12 02:52:44;;;;;;;0.10;0.10;;;14.30;56.90;;;;;;5015645;28;20715;-56
2023/08/12 02:55:16;;;;;;;0.05;0.05;;;14.30;57.00;;;;;;5033486;28;20200;-51
2023/08/12 02:57:47;;;;;;;0.10;0.10;;;14.30;57.00;;;;;;5034161;28;20220;-51
2023/08/12 03:00:18;;;;;;;0.10;0.10;;;14.40;57.00;;;;;;5034059;28;20232;-54
2023/08/12 03:02:49;;;;;;;0.10;0.10;;;14.40;57.10;;;;;;5034044;28;20283;-52
2023/08/12 03:05:20;;;;;;;0.10;0.10;;;14.40;57.00;;;;;;5034430;28;20200;-55
2023/08/12 03:07:51;;;;;;;0.10;0.10;;;14.50;57.00;;;;;;5033906;28;20216;-55
2023/08/12 03:10:24;;;;;;;0.10;0.10;;;14.50;56.90;;;;;;5033709;28;20250;-54
2023/08/12 03:12:54;;;;;;;0.10;0.10;;;14.50;56.90;;;;;;5033923;28;20223;-55
2023/08/12 03:15:25;;;;;;;0.10;0.10;;;14.60;56.90;;;;;;5033903;28;20202;-53
2023/08/12 03:17:56;;;;;;;0.10;0.10;;;14.60;56.80;;;;;;5033710;28;20566;-57
2023/08/12 03:20:26;;;;;;;0.10;0.10;;;14.60;56.80;;;;;;5032778;28;20652;-55
2023/08/12 03:22:57;;;;;;;0.10;0.10;;;14.70;56.80;;;;;;5033519;28;20196;-57
2023/08/12 03:25:29;;;;;;;0.10;0.10;;;14.70;56.80;;;;;;5033653;28;20196;-56
2023/08/12 03:28:00;;;;;;;0.10;0.10;;;14.70;56.80;;;;;;5034006;28;20196;-53
2023/08/12 03:30:31;;;;;;;0.10;0.10;;;14.70;56.70;;;;;;5033873;28;20204;-54
2023/08/12 03:33:01;;;;;;;0.05;0.05;;;14.80;56.70;;;;;;5033471;28;20648;-55
2023/08/12 03:35:32;;;;;;;0.10;0.10;;;14.80;56.90;;;;;;5033052;28;20519;-51
2023/08/12 03:38:03;;;;;;;0.10;0.10;;;14.80;56.90;;;;;;5033416;28;20196;-51
2023/08/12 03:40:40;;;;;;;0.10;0.10;;;14.80;56.90;;;;;;5033115;28;20203;-55
2023/08/12 03:43:10;;;;;;;0.10;0.10;;;14.90;56.90;;;;;;5033365;28;20192;-54
2023/08/12 03:45:44;;;;;;;0.10;0.10;;;14.90;56.80;;;;;;5033270;28;20200;-51
2023/08/12 03:48:15;;;;;;;0.10;0.10;;;14.90;56.70;;;;;;5031070;28;20195;-56
2023/08/12 03:50:47;;;;;;;0.03;0.03;;;14.90;56.70;;;;;;5032666;28;20632;-56
2023/08/12 03:53:18;;;;;;;0.10;0.10;;;15.00;56.70;;;;;;5032673;28;20206;-56
2023/08/12 03:55:50;;;;;;;0.10;0.10;;;15.00;56.70;;;;;;5033069;28;20214;-56
2023/08/12 03:58:21;;;;;;;0.10;0.10;;;15.00;56.60;;;;;;5033097;28;20203;-57
2023/08/12 04:00:53;;;;;;;0.10;0.10;;;15.00;56.60;;;;;;5032416;28;20730;-55
2023/08/12 04:03:23;;;;;;;0.10;0.10;;;15.10;56.60;;;;;;5032879;28;20203;-57
2023/08/12 04:05:54;;;;;;;0.08;0.08;;;15.10;56.60;;;;;;5038865;28;20231;-57
2023/08/12 04:08:26;;;;;;;0.10;0.10;;;15.10;56.60;;;;;;5050359;28;20196;-57
2023/08/12 04:10:58;;;;;;;0.10;0.10;;;15.10;56.50;;;;;;5031442;28;20204;-57
2023/08/12 04:13:29;;;;;;;0.10;0.10;;;15.10;56.50;;;;;;5033065;28;20279;-56
2023/08/12 04:16:00;;;;;;;0.10;0.10;;;15.10;56.40;;;;;;5039607;28;20226;-57
2023/08/12 04:18:30;;;;;;;0.03;0.03;;;15.10;56.40;;;;;;5037584;28;20192;-57
2023/08/12 04:21:01;;;;;;;0.10;0.10;;;15.10;56.50;;;;;;5032026;28;20199;-58
2023/08/12 04:23:32;;;;;;;0.10;0.10;;;15.10;56.50;;;;;;5031849;28;20207;-57
2023/08/12 04:26:04;;;;;;;0.10;0.10;;;15.20;56.50;;;;;;5032172;28;20208;-56
2023/08/12 04:28:35;;;;;;;0.10;0.10;;;15.20;56.50;;;;;;5031141;28;20207;-56
2023/08/12 04:31:09;;;;;;;0.10;0.10;;;15.20;56.50;;;;;;5032048;28;20193;-56
2023/08/12 04:33:40;;;;;;;0.10;0.10;;;15.20;56.50;;;;;;5031804;28;20203;-56
2023/08/12 04:36:11;;;;;;;0.10;0.10;;;15.30;56.50;;;;;;5031694;28;20224;-57
2023/08/12 04:38:42;;;;;;;0.10;0.10;;;15.30;56.50;;;;;;5031519;28;20196;-57
2023/08/12 04:41:14;;;;;;;0.10;0.10;;;15.30;56.50;;;;;;5030764;28;20196;-56
2023/08/12 04:43:45;;;;;;;0.10;0.10;;;15.30;56.40;;;;;;5031930;28;20192;-56
2023/08/12 04:46:16;;;;;;;0.10;0.10;;;15.30;56.40;;;;;;5032163;28;20216;-57
2023/08/12 04:48:47;;;;;;;0.10;0.10;;;15.30;56.40;;;;;;5031200;28;20660;-56
2023/08/12 04:51:18;;;;;;;0.10;0.10;;;15.30;56.30;;;;;;5031591;28;20224;-57
2023/08/12 04:53:48;;;;;;;0.10;0.10;;;15.30;56.20;;;;;;5031654;28;20664;-56
2023/08/12 04:56:21;;;;;;;0.10;0.10;;;15.30;56.30;;;;;;5031846;28;20595;-57
2023/08/12 04:58:52;;;;;;;0.00;0.00;;;15.30;56.30;;;;;;5031934;28;20207;-53
2023/08/12 05:01:22;;;;;;;0.10;0.10;;;15.30;56.30;;;;;;5031607;28;20250;-56
2023/08/12 05:03:53;;;;;;;0.10;0.10;;;15.30;56.30;;;;;;5031634;28;20200;-54
2023/08/12 05:06:24;;;;;;;0.10;0.10;;;15.30;56.30;;;;;;5031468;28;20212;-56
2023/08/12 05:08:54;;;;;;;0.10;0.10;;;15.30;56.30;;;;;;5031154;28;20208;-56
2023/08/12 05:11:27;;;;;;;0.10;0.10;;;15.30;56.30;;;;;;5031143;28;20648;-56
2023/08/12 05:13:58;;;;;;;0.10;0.10;;;15.30;56.30;;;;;;5031423;28;20200;-56
2023/08/12 05:16:28;;;;;;;0.10;0.10;;;15.40;56.40;;;;;;5031614;28;20584;-56
2023/08/12 05:18:59;;;;;;;0.10;0.10;;;15.40;56.30;;;;;;5030202;28;20673;-57
2023/08/12 05:21:30;;;;;;;0.10;0.10;;;15.40;56.20;;;;;;5031017;28;20653;-56
2023/08/12 05:24:00;;;;;;;0.10;0.10;;;15.40;56.20;;;;;;5030378;28;20199;-56
2023/08/12 05:26:33;;;;;;;0.10;0.10;;;15.40;56.10;;;;;;5037398;28;20219;-56
2023/08/12 05:29:04;;;;;;;0.00;0.00;;;15.40;56.00;;;;;;5030617;28;20652;-56
2023/08/12 05:31:34;;;;;;;0.10;0.10;;;15.40;56.00;;;;;;5031457;28;20192;-56
2023/08/12 05:34:05;;;;;;;0.08;0.08;;;15.40;55.90;;;;;;5031333;28;20207;-57
2023/08/12 05:36:36;;;;;;;0.10;0.10;;;15.40;55.90;;;;;;5030519;28;20227;-56
2023/08/12 05:39:06;;;;;;;0.10;0.10;;;15.40;55.90;;;;;;5030892;28;20204;-56
2023/08/12 05:41:39;;;;;;;0.00;0.00;;;15.40;56.00;;;;;;5031093;28;20192;-56
2023/08/12 05:44:10;;;;;;;0.00;0.00;;;15.40;56.10;;;;;;5030771;28;20564;-56
2023/08/12 05:46:41;;;;;;;0.00;0.00;;;15.40;56.10;;;;;;5031039;28;20223;-59
2023/08/12 05:49:14;;;;;;;0.10;0.10;;;15.40;56.10;;;;;;5030577;28;20202;-56
2023/08/12 05:51:45;;;;;;;0.08;0.08;;;15.40;55.30;;;;;;5031037;28;20203;-58
2023/08/12 05:54:15;;;;;;;0.10;0.10;;;15.30;54.30;;;;;;5030819;28;20208;-56
2023/08/12 05:56:48;;;;;;;0.10;0.10;;;15.30;53.70;;;;;;5030546;28;20664;-54
2023/08/12 05:59:18;;;;;;;0.10;0.10;;;15.20;53.30;;;;;;5030683;28;20554;-54
2023/08/12 06:01:49;;;;;;;0.10;0.10;;;15.10;53.00;;;;;;5030799;28;20656;-54
2023/08/12 06:04:20;;;;;;;0.10;0.10;;;15.00;52.70;;;;;;5031117;28;20207;-52
2023/08/12 06:06:50;;;;;;;0.10;0.10;;;14.90;52.50;;;;;;5038595;28;20219;-55
2023/08/12 06:09:21;;;;;;;0.10;0.10;;;14.80;52.40;;;;;;5050929;28;20199;-57
2023/08/12 06:11:53;;;;;;;0.15;0.15;;;14.60;52.30;;;;;;5047615;28;20195;-57
2023/08/12 06:14:24;;;;;;;0.10;0.10;;;14.60;52.20;;;;;;5029546;28;20192;-53
2023/08/12 06:16:54;;;;;;;0.10;0.10;;;14.50;52.20;;;;;;5030804;28;20711;-52
2023/08/12 06:19:25;;;;;;;0.10;0.10;;;14.40;52.80;;;;;;5030753;28;20197;-52
2023/08/12 06:21:56;;;;;;;0.10;0.10;;;14.30;52.20;;;;;;5029594;28;20203;-55
2023/08/12 06:24:26;;;;;;;0.10;0.10;;;14.20;52.00;;;;;;5030702;28;20652;-52
2023/08/12 06:26:59;;;;;;;0.10;0.10;;;14.20;52.00;;;;;;5029160;28;20572;-58
2023/08/12 06:29:29;;;;;;;0.10;0.10;;;14.10;52.00;;;;;;5030562;28;20203;-55
2023/08/12 06:32:00;;;;;;;0.10;0.10;;;14.00;52.00;;;;;;5034134;28;20565;-54
2023/08/12 06:34:31;;;;;;;0.10;0.10;;;13.90;51.90;;;;;;5034287;28;20243;-54
2023/08/12 06:37:01;;;;;;;0.10;0.10;;;13.80;52.00;;;;;;5033901;28;20220;-53
2023/08/12 06:39:32;;;;;;;0.10;0.10;;;13.80;52.10;;;;;;5033802;28;20200;-57
2023/08/12 06:42:05;;;;;;;0.10;0.10;;;13.70;52.20;;;;;;5034969;28;20192;-53
2023/08/12 06:44:36;;;;;;;0.10;0.10;;;13.60;52.10;;;;;;5033538;28;20630;-51
2023/08/12 06:47:06;;;;;;;0.10;0.10;;;13.50;52.10;;;;;;5034084;28;20220;-49
2023/08/12 06:49:37;;;;;;;0.10;0.10;;;13.40;52.00;;;;;;5033979;28;20211;-52
2023/08/12 06:52:08;;;;;;;0.10;0.10;;;13.30;52.00;;;;;;5033971;28;20196;-56
2023/08/12 06:54:38;;;;;;;0.10;0.10;;;13.30;52.00;;;;;;5033365;28;20203;-49
2023/08/12 06:57:11;;;;;;;0.10;0.10;;;13.20;52.10;;;;;;5025704;28;20223;-53
2023/08/12 06:59:42;;;;;;;0.10;0.10;;;13.10;52.10;;;;;;5032907;28;20199;-51
2023/08/12 07:02:12;;;;;;;0.10;0.10;;;13.10;52.20;;;;;;5034201;28;20196;-54
2023/08/12 07:04:43;;;;;;;0.10;0.10;;;13.00;52.40;;;;;;5034002;28;20667;-53
2023/08/12 07:07:14;;;;;;;0.10;0.10;;;12.90;52.50;;;;;;5032524;28;20216;-54
2023/08/12 07:09:44;;;;;;;0.10;0.10;;;12.90;52.70;;;;;;5033690;28;20196;-54
2023/08/12 07:12:17;;;;;;;0.10;0.10;;;12.80;52.80;;;;;;5032969;28;20200;-54
2023/08/12 07:14:47;;;;;;;0.10;0.10;;;12.80;53.00;;;;;;5033540;28;20203;-53
2023/08/12 07:17:18;;;;;;;0.20;0.20;;;12.70;53.00;;;;;;5033215;28;20282;-55
2023/08/12 07:19:49;;;;;;;0.10;0.10;;;12.60;53.10;;;;;;5033702;28;20200;-53
2023/08/12 07:22:20;;;;;;;0.10;0.10;;;12.60;53.20;;;;;;5033243;28;20196;-56
2023/08/12 07:24:52;;;;;;;0.10;0.10;;;12.60;53.40;;;;;;5033363;28;20200;-53
2023/08/12 07:27:24;;;;;;;0.10;0.10;;;12.50;53.50;;;;;;5039603;28;20690;-52
2023/08/12 07:29:55;;;;;;;0.20;0.20;;;12.50;53.60;;;;;;5053287;28;20192;-53
2023/08/12 07:32:26;;;;;;;0.20;0.20;;;12.50;53.60;;;;;;5053610;28;20206;-48
2023/08/12 07:34:57;;;;;;;0.10;0.10;;;12.40;53.50;;;;;;5053179;28;20559;-56
2023/08/12 07:37:29;;;;;;;0.10;0.10;;;12.40;53.50;;;;;;5052740;28;20231;-54
2023/08/12 07:40:03;;;;;;;0.10;0.10;;;12.30;53.40;;;;;;5053386;28;20682;-51
2023/08/12 07:42:42;;;;;;;0.17;0.17;;;12.30;53.50;;;;;;5052498;28;20660;-49
2023/08/12 07:45:16;;;;;;;0.10;0.10;;;12.20;53.60;;;;;;5053194;28;20191;-52
2023/08/12 07:47:49;;;;;;;0.10;0.10;;;12.20;53.70;;;;;;5052823;28;20222;-54
2023/08/12 07:50:24;;;;;;;0.10;0.10;;;12.10;53.70;;;;;;5052896;28;20647;-56
2023/08/12 07:52:57;;;;;;;0.10;0.10;;;12.10;53.70;;;;;;5050130;28;20200;-52
2023/08/12 07:55:31;;;;;;;0.20;0.20;;;12.00;53.70;;;;;;5032894;28;20664;-55
2023/08/12 07:58:07;;;;;;;0.10;0.10;;;12.00;53.80;;;;;;5032342;28;20228;-54
2023/08/12 08:00:39;;;;;;;0.17;0.17;;;12.00;53.80;;;;;;5033217;28;20231;-56
2023/08/12 08:03:11;;;;;;;0.20;0.20;;;11.90;53.80;;;;;;5032836;28;20370;-55
2023/08/12 08:05:45;;;;;;;0.20;0.20;;;11.90;53.80;;;;;;5033345;28;20204;-54
2023/08/12 08:08:16;;;;;;;0.10;0.10;;;11.80;53.80;;;;;;5032943;28;20266;-53
2023/08/12 08:10:46;;;;;;;0.10;0.10;;;11.80;53.90;;;;;;5032053;28;20200;-51
2023/08/12 08:13:19;;;;;;;0.20;0.20;;;11.70;53.90;;;;;;5031757;28;20196;-52
2023/08/12 08:15:50;;;;;;;0.20;0.20;;;11.70;54.10;;;;;;5031596;28;20188;-54
2023/08/12 08:18:20;;;;;;;0.20;0.20;;;11.70;54.30;;;;;;5032877;28;20228;-53
2023/08/12 08:20:51;;;;;;;0.20;0.20;;;11.60;54.40;;;;;;5031673;28;20191;-56
2023/08/12 08:23:21;;;;;;;0.20;0.20;;;11.60;54.50;;;;;;5032109;28;20286;-58
2023/08/12 08:25:52;;;;;;;0.13;0.13;;;11.60;54.60;;;;;;5032223;28;20703;-56
2023/08/12 08:28:25;;;;;;;0.15;0.15;;;11.70;54.70;;;;;;5031767;28;20200;-57
2023/08/12 08:30:56;;;;;;;0.10;0.10;;;11.70;54.70;;;;;;5031997;28;20656;-55
2023/08/12 08:33:27;;;;;;;0.10;0.10;;;11.70;54.80;;;;;;5032210;28;20284;-55
2023/08/12 08:35:58;;;;;;;0.10;0.10;;;11.80;54.90;;;;;;5032591;28;20219;-57
2023/08/12 08:38:28;;;;;;;0.20;0.20;;;11.80;54.90;;;;;;5032503;28;20591;-56
2023/08/12 08:41:00;;;;;;;0.10;0.10;;;11.80;54.90;;;;;;5032307;28;20196;-56
2023/08/12 08:43:35;;;;;;;0.20;0.20;;;11.90;54.90;;;;;;5031505;28;20200;-54
2023/08/12 08:46:06;;;;;;;0.10;0.10;;;11.90;54.90;;;;;;5031684;28;20298;-55
2023/08/12 08:48:37;;;;;;;0.10;0.10;;;12.00;54.90;;;;;;5032062;28;20203;-53
2023/08/12 08:51:10;;;;;;;0.10;0.10;;;12.00;55.50;;;;;;5032407;28;20564;-53
2023/08/12 08:53:42;;;;;;;0.10;0.10;;;12.00;54.80;;;;;;5031459;28;20200;-52
2023/08/12 08:56:13;;;;;;;0.10;0.10;;;12.10;54.90;;;;;;5032033;28;20231;-56
2023/08/12 08:58:45;;;;;;;0.10;0.10;;;12.10;54.90;;;;;;5031386;28;20228;-56
2023/08/12 09:01:18;;;;;;;0.10;0.10;;;12.10;54.80;;;;;;5031973;28;20196;-58
2023/08/12 09:03:49;;;;;;;0.10;0.10;;;12.10;54.80;;;;;;5031802;28;20652;-55
2023/08/12 09:06:22;;;;;;;0.10;0.10;;;12.10;54.70;;;;;;5032222;28;20248;-55
2023/08/12 09:08:55;;;;;;;0.10;0.10;;;12.20;54.80;;;;;;5031904;28;20199;-53
2023/08/12 09:11:27;;;;;;;0.10;0.10;;;12.20;54.80;;;;;;5031741;28;20200;-56
2023/08/12 09:13:59;;;;;;;0.20;0.20;;;12.20;54.80;;;;;;5031324;28;20188;-57
2023/08/12 09:16:30;;;;;;;0.20;0.20;;;12.20;54.90;;;;;;5026432;28;20220;-54
2023/08/12 09:19:00;;;;;;;0.20;0.20;;;12.30;55.10;;;;;;5012045;28;20711;-53
2023/08/12 09:21:31;;;;;;;0.10;0.10;;;12.30;55.00;;;;;;5029323;28;20663;-51
2023/08/12 09:24:06;;;;;;;0.10;0.10;;;12.30;55.00;;;;;;5031551;28;20203;-51
2023/08/12 09:26:37;;;;;;;0.10;0.10;;;12.30;54.90;;;;;;5033343;28;20227;-57
2023/08/12 09:29:10;;;;;;;0.10;0.10;;;12.40;54.90;;;;;;5030833;28;20196;-56
2023/08/12 09:31:40;;;;;;;0.10;0.10;;;12.40;54.80;;;;;;5031190;28;20207;-53
2023/08/12 09:34:11;;;;;;;0.10;0.10;;;12.40;54.90;;;;;;5031017;28;20310;-55
2023/08/12 09:36:42;;;;;;;0.10;0.10;;;12.40;54.80;;;;;;5030000;28;20306;-57
2023/08/12 09:39:15;;;;;;;0.10;0.10;;;12.40;54.80;;;;;;5031879;28;20226;-58
2023/08/12 09:41:47;;;;;;;0.10;0.10;;;12.40;54.80;;;;;;5030747;28;20231;-57
2023/08/12 09:44:19;;;;;;;0.10;0.10;;;12.40;54.80;;;;;;5031521;28;20200;-56
2023/08/12 09:46:50;;;;;;;0.10;0.10;;;12.40;54.80;;;;;;5030860;28;20228;-57
2023/08/12 09:49:21;;;;;;;0.20;0.20;;;12.40;54.80;;;;;;5031129;28;20208;-54
2023/08/12 09:51:53;;;;;;;0.10;0.10;;;12.50;54.80;;;;;;5030695;28;20640;-55
2023/08/12 09:54:24;;;;;;;0.10;0.10;;;12.50;55.40;;;;;;5030484;28;20674;-53
2023/08/12 09:56:59;;;;;;;0.10;0.10;;;12.50;54.80;;;;;;5049103;28;20223;-57
2023/08/12 09:59:35;;;;;;;0.20;0.20;;;12.50;54.80;;;;;;5050828;28;20701;-56
2023/08/12 10:02:07;;;;;;;0.10;0.10;;;12.50;54.80;;;;;;5017829;28;20199;-53
2023/08/12 10:04:41;;;;;;;0.10;0.10;;;12.50;54.80;;;;;;5033197;28;20208;-57
2023/08/12 10:07:14;;;;;;;0.10;0.10;;;12.50;54.80;;;;;;5034740;28;20462;-55
2023/08/12 10:09:46;;;;;;;0.10;0.10;;;12.50;54.80;;;;;;5031330;28;20221;-53
2023/08/12 10:12:17;;;;;;;0.10;0.10;;;12.50;54.80;;;;;;5035551;28;20192;-51
2023/08/12 10:14:50;;;;;;;0.10;0.10;;;12.50;54.80;;;;;;5027091;28;20189;-57
2023/08/12 10:17:21;;;;;;;0.10;0.10;;;12.50;54.80;;;;;;5034220;28;20692;-56
2023/08/12 10:19:57;;;;;;;0.15;0.15;;;12.50;54.80;;;;;;5034573;28;20223;-56
2023/08/12 10:22:28;;;;;;;0.20;0.20;;;12.50;54.80;;;;;;5034614;28;20208;-53
2023/08/12 10:25:01;;;;;;;0.10;0.10;;;12.50;54.80;;;;;;5034439;28;20196;-55
2023/08/12 10:27:31;;;;;;;0.10;0.10;;;12.50;54.70;;;;;;5014593;28;20217;-53
2023/08/12 10:30:07;;;;;;;0.20;0.20;;;12.50;54.80;;;;;;5016099;28;20721;-54
2023/08/12 10:32:38;;;;;;;0.10;0.10;;;12.50;54.80;;;;;;5034515;28;20210;-52
2023/08/12 10:35:10;;;;;;;0.10;0.10;;;12.50;54.80;;;;;;5034056;28;20204;-54
2023/08/12 10:37:41;;;;;;;0.10;0.10;;;12.50;54.80;;;;;;5034494;28;20248;-52
2023/08/12 10:40:23;;;;;;;0.10;0.10;;;12.50;54.80;;;;;;5033907;28;20196;-51
2023/08/12 10:42:54;;;;;;;0.10;0.10;;;12.50;54.80;;;;;;5033988;28;20806;-56
2023/08/12 10:45:42;;;;;;;0.10;0.10;;;12.50;54.80;;;;;;5034534;28;20632;-56
2023/08/12 10:48:21;;;;;;;0.10;0.10;;;12.50;54.80;;;;;;5033911;28;20204;-57
2023/08/12 10:50:54;;;;;;;0.10;0.10;;;12.50;54.80;;;;;;5033566;28;20230;-52
2023/08/12 10:53:29;;;;;;;0.10;0.10;;;12.50;54.70;;;;;;5033406;28;20200;-51
2023/08/12 10:56:01;;;;;;;0.10;0.10;;;12.50;54.70;;;;;;5033984;28;20243;-57
2023/08/12 10:58:35;;;;;;;0.10;0.10;;;12.50;54.80;;;;;;5034061;28;20223;-57
2023/08/12 11:01:15;;;;;;;0.10;0.10;;;12.50;54.80;;;;;;5034361;28;20234;-52
2023/08/12 11:03:47;;;;;;;0.10;0.10;;;12.40;54.70;;;;;;5034568;28;20568;-53
2023/08/12 11:06:18;;;;;;;0.10;0.10;;;12.50;54.70;;;;;;5062378;23;20231;-52
2023/08/12 11:08:54;;;;;;;0.10;0.10;;;12.40;54.70;;;;;;5054107;28;20246;-51
2023/08/12 11:11:25;;;;;;;0.10;0.10;;;12.40;54.70;;;;;;5053422;28;20199;-51
2023/08/12 11:13:59;;;;;;;0.10;0.10;;;12.40;54.70;;;;;;5053338;28;20211;-51
2023/08/12 11:16:40;;;;;;;0.20;0.20;;;12.40;54.70;;;;;;5052903;28;20683;-52
2023/08/12 11:19:11;;;;;;;0.10;0.10;;;12.40;54.70;;;;;;5053315;28;20702;-50
2023/08/12 11:21:42;;;;;;;0.10;0.10;;;12.40;54.70;;;;;;5053745;28;20191;-54
2023/08/12 11:24:13;;;;;;;0.10;0.10;;;12.40;54.70;;;;;;5053317;28;20196;-51
2023/08/12 11:26:44;;;;;;;0.13;0.13;;;12.40;54.70;;;;;;5052964;28;20215;-51
2023/08/12 11:29:17;;;;;;;0.10;0.10;;;12.40;54.70;;;;;;5053184;28;20192;-51
2023/08/12 11:31:50;;;;;;;0.10;0.10;;;12.40;54.70;;;;;;5053337;28;20227;-52
2023/08/12 11:34:21;;;;;;;0.10;0.10;;;12.40;54.70;;;;;;5053410;28;20195;-51
2023/08/12 11:36:51;;;;;;;0.15;0.15;;;12.40;54.70;;;;;;5052496;28;20222;-53
2023/08/12 11:39:23;;;;;;;0.20;0.20;;;12.40;54.70;;;;;;5053570;28;20296;-52
2023/08/12 11:41:54;;;;;;;0.20;0.20;;;12.40;54.70;;;;;;5052738;28;20199;-51
2023/08/12 11:44:25;;;;;;;0.10;0.10;;;12.40;54.70;;;;;;5053403;28;20195;-51
2023/08/12 11:46:58;;;;;;;0.17;0.17;;;12.40;54.70;;;;;;5052858;28;20218;-54
2023/08/12 11:49:29;;;;;;;0.10;0.10;;;12.40;54.70;;;;;;5052995;28;20199;-55
2023/08/12 11:51:59;;;;;;;0.10;0.10;;;12.30;54.70;;;;;;5066522;28;20195;-52
2023/08/12 11:54:30;;;;;;;0.20;0.20;;;12.40;54.80;;;;;;5054048;28;20195;-51
2023/08/12 11:57:02;;;;;;;0.10;0.10;;;12.30;54.80;;;;;;5052697;28;20710;-51
2023/08/12 11:59:34;;;;;;;0.20;0.20;;;12.30;54.90;;;;;;5052728;28;20278;-51
2023/08/12 12:02:08;;;;;;;0.10;0.10;;;12.40;55.10;;;;;;5052567;28;20536;-51
2023/08/12 12:04:39;;;;;;;0.10;0.10;;;12.40;55.20;;;;;;5067305;22;20186;-58
2023/08/12 12:07:21;;;;;;;0.10;0.10;;;12.40;55.20;;;;;;5069378;28;20207;-58
2023/08/12 12:09:55;;;;;;;0.10;0.10;;;12.40;55.10;;;;;;5059266;28;20194;-58
2023/08/12 12:12:28;;;;;;;0.10;0.10;;;12.40;55.10;;;;;;5072126;28;20191;-58
2023/08/12 12:15:00;;;;;;;0.10;0.10;;;12.40;55.10;;;;;;5072512;28;20191;-60
2023/08/12 12:17:32;;;;;;;0.10;0.10;;;12.40;55.10;;;;;;5088417;28;20206;-59
2023/08/12 12:20:05;;;;;;;0.20;0.20;;;12.40;55.10;;;;;;5092301;28;20313;-58
2023/08/12 12:22:36;;;;;;;0.10;0.10;;;12.40;55.10;;;;;;5092149;28;20206;-58
2023/08/12 12:25:10;;;;;;;0.10;0.10;;;12.40;55.10;;;;;;5071387;28;20218;-59
2023/08/12 12:27:42;;;;;;;0.10;0.10;;;12.40;55.10;;;;;;5071022;28;20735;-58
2023/08/12 12:30:14;;;;;;;0.10;0.10;;;12.40;55.70;;;;;;5071623;28;20199;-60
2023/08/12 12:32:46;;;;;;;0.10;0.10;;;12.40;55.10;;;;;;5071792;28;20190;-59
2023/08/12 12:35:17;;;;;;;0.20;0.20;;;12.40;55.10;;;;;;5071894;28;20278;-58
2023/08/12 12:37:48;;;;;;;0.10;0.10;;;12.40;55.10;;;;;;5071413;28;20555;-58
2023/08/12 12:40:18;;;;;;;0.10;0.10;;;12.30;55.10;;;;;;5071612;28;20227;-60
2023/08/12 12:42:49;;;;;;;0.10;0.10;;;12.30;55.00;;;;;;5071452;28;20278;-58
2023/08/12 12:45:20;;;;;;;0.10;0.10;;;12.30;55.10;;;;;;5071897;28;20198;-59
2023/08/12 12:47:52;;;;;;;0.10;0.10;;;12.40;55.10;;;;;;5071520;28;20211;-60
2023/08/12 12:50:23;;;;;;;0.10;0.10;;;12.30;55.00;;;;;;5072319;28;20655;-55
2023/08/12 12:52:54;;;;;;;0.10;0.10;;;12.30;55.00;;;;;;5072244;28;20202;-51
2023/08/12 12:55:24;;;;;;;0.10;0.10;;;12.30;55.00;;;;;;5072172;28;20595;-53
2023/08/12 12:57:55;;;;;;;0.20;0.20;;;12.30;55.00;;;;;;5072042;28;20721;-53
2023/08/12 13:00:26;;;;;;;0.17;0.17;;;12.30;55.00;;;;;;5071826;28;20226;-54
2023/08/12 13:02:58;;;;;;;0.20;0.20;;;12.30;55.00;;;;;;5071340;28;20205;-57
2023/08/12 13:05:29;;;;;;;0.15;0.15;;;12.30;55.00;;;;;;5072256;28;20674;-53
2023/08/12 13:07:59;;;;;;;0.20;0.20;;;12.30;55.00;;;;;;5071318;28;20210;-58
2023/08/12 13:10:30;;;;;;;0.20;0.20;;;12.30;55.00;;;;;;5071422;28;20199;-59